Airfield :
LOGIN :

Register | Disclaimer

   EN    FR    IT 

 










Legend :    VFR   Marginal VFR   IFR   Intensive IFR   Very Intensive IFR
Visi :
Ceiling :
>= 8 km
>= 3000ft
5 to 8 km
1000 to 3000 ft
1500m to 5 km
500 to 1000 ft
800 to 1500m
200 to 500 ft
< 800m
< 200 ft
Symbols :   Thunderstorms  Fog  Heavy snow  Heavy precipitations  Wind > 20 kt
SIGMETs :     Misc.  Thunderstorms  Icing  Turbulence  Mountain Waves  Volcanic Ashes







- Airport Elevation : 135 ft
- IATA code : EDI
- Download approach charts


EGPH - Edinburgh

CURRENT METAR :
  • 160250Z VRB02KT CAVOK 07/06 Q1008

EXPIRED METARs :
  • 160220Z VRB01KT CAVOK 06/06 Q1008
  • 160150Z 33004KT CAVOK 07/06 Q1008
  • 160120Z 24005KT 190V010 CAVOK 09/07 Q1008
  • 160050Z VRB03KT CAVOK 07/06 Q1008
  • 160020Z VRB02KT CAVOK 07/06 Q1009

TAF TAF EGPH
Valid from the 16 at 00:00 until the 17 at 00:00 UTC


152258Z 1600/1624 20007KT 9999 FEW045
PROB40
TEMPO 1608/1618 6000 SHRA
ATIS : +44 131 339 2823
No reported NOTAMs for that airfield.



MET'MAP, your aeronautical weather chart ! - Copyright ORBIFLY December 2007 - Disclaimer

ORBIFLY MET'MAP TEAM :

Programming & Development : Alexandra Zaïnal
Concept & Development : Baudouin d'Aumeries
Co-Development & Prog : Marc-Olivier Méhu
Technical & hardware support : Manuel Goepfert

Contact : metmap@orbifly.com




SOURCES & CREDITS :

   NOAA